Current Weather

NSFA McMurdo Sound

NSFA McMurdo Sound, Antarctica (NZCM)

Report from: Tuesday, July 16, 2024 1:55 PM UTC
Current time: Tuesday, July 16, 2024 2:51 PM UTC

Nearby weather – Weather history – Daily summaries
Weather forecast

Temperature-28.8°C (-19.8°F)
Dew point-34.5°C (-30.1°F)
Winds Calm
Visibility6.2 mi. (10 km)
Clouds Sky clear
Altimeter29.32 in.Hg (993 mB)
Relative humidity58 %
Density altitude-5,024 ft. (-1,531 m)
Sea-level pressure99.4 kPa (994 mB, 29.34 in.Hg)
Remarks Fully automated report
System requires maintenance
Automated weather observing station with precipitation discriminator
Flight conditions Visual Meteorological Conditions
Raw dataNZCM 161355Z AUTO 00000KT 9999 CLR M29/M34 A2932 RMK AO2 SLP935 T12881345 $
An error has occurred. This application may no longer respond until reloaded. Reload 🗙